createdAt,value
2023-03-13T00:00:24.000Z,8.8
2023-03-13T00:01:39.000Z,8.9
2023-03-13T00:02:55.000Z,9.5
2023-03-13T00:04:12.000Z,9.7
2023-03-13T00:05:28.000Z,9.6
2023-03-13T00:06:44.649Z,10.2
2023-03-13T00:08:00.000Z,10.5
2023-03-13T00:09:16.939Z,11.1
2023-03-13T00:10:32.112Z,11.3
2023-03-13T00:11:47.000Z,11.3
2023-03-13T00:13:02.000Z,12.2
2023-03-13T00:14:17.615Z,12.3
2023-03-13T00:15:33.000Z,12.6
2023-03-13T00:16:49.906Z,12.7
2023-03-13T00:18:05.000Z,13.1
2023-03-13T00:19:21.000Z,13.1
2023-03-13T00:20:38.000Z,13.3
2023-03-13T00:21:54.000Z,13.5
2023-03-13T00:23:10.639Z,13.6
2023-03-13T00:24:26.000Z,13.7
2023-03-13T00:25:42.000Z,13.3
2023-03-13T00:26:58.000Z,13.1
2023-03-13T00:28:15.230Z,12.7
2023-03-13T00:29:31.000Z,12.8
2023-03-13T00:30:46.000Z,13
2023-03-13T00:32:02.000Z,13.1
2023-03-13T00:33:18.000Z,12.9
2023-03-13T00:34:34.000Z,12.9
2023-03-13T00:35:50.000Z,12.8
2023-03-13T00:37:07.000Z,13.1
2023-03-13T00:38:23.422Z,13.5
2023-03-13T00:39:38.000Z,13.5
2023-03-13T00:40:53.000Z,13.4
2023-03-13T00:42:08.000Z,13.5
2023-03-13T00:43:23.000Z,13.4
2023-03-13T00:44:40.000Z,13.1
2023-03-13T00:45:56.000Z,12.8
2023-03-13T00:47:12.000Z,12.4
2023-03-13T00:48:28.000Z,12
2023-03-13T00:49:43.858Z,11.7
2023-03-13T00:50:59.999Z,11.8
2023-03-13T00:52:15.000Z,11.4
2023-03-13T00:53:32.000Z,11.2
2023-03-13T00:54:48.000Z,11.2
2023-03-13T00:56:04.000Z,11.4
2023-03-13T00:57:20.000Z,11.8
2023-03-13T00:58:36.000Z,12.1
2023-03-13T00:59:52.000Z,12
2023-03-13T01:01:08.000Z,11.8
2023-03-13T01:02:25.000Z,12.2
2023-03-13T01:03:41.000Z,12.1
2023-03-13T01:04:57.000Z,12.3
2023-03-13T01:06:12.000Z,12.2
2023-03-13T01:07:28.000Z,11.9
2023-03-13T01:08:43.000Z,12.1
2023-03-13T01:09:59.000Z,11.9
2023-03-13T01:11:15.000Z,11.8
2023-03-13T01:12:31.565Z,12.3
2023-03-13T01:13:47.000Z,12.2
2023-03-13T01:15:03.000Z,12.1
2023-03-13T01:16:19.000Z,11.9
2023-03-13T01:17:35.000Z,12
2023-03-13T01:18:52.000Z,12.1
2023-03-13T01:20:08.000Z,12.2
2023-03-13T01:21:24.589Z,12.1
2023-03-13T01:22:40.761Z,12.3
2023-03-13T01:23:56.000Z,12.8
2023-03-13T01:25:12.000Z,12.8
2023-03-13T01:26:27.000Z,12.4
2023-03-13T01:27:44.000Z,12.4
2023-03-13T01:29:00.000Z,12.4
2023-03-13T01:30:16.000Z,12.1
2023-03-13T01:31:32.000Z,12.1
2023-03-13T01:32:48.000Z,12.2
2023-03-13T01:34:04.000Z,12.1
2023-03-13T01:35:20.000Z,12.7
2023-03-13T01:36:35.000Z,12.1
2023-03-13T01:37:50.588Z,12.8
2023-03-13T01:39:05.000Z,12.4
2023-03-13T01:40:21.000Z,12.4
2023-03-13T01:41:36.000Z,11.9
2023-03-13T01:42:52.000Z,12.1
2023-03-13T01:44:08.000Z,12.2
2023-03-13T01:45:24.000Z,12.5
2023-03-13T01:46:40.692Z,12.4
2023-03-13T01:47:56.822Z,12.4
2023-03-13T01:49:12.000Z,12.2
2023-03-13T01:50:28.000Z,12
2023-03-13T01:51:45.000Z,11
2023-03-13T01:53:01.000Z,11
2023-03-13T01:54:17.571Z,10.8
2023-03-13T01:55:33.000Z,10
2023-03-13T01:56:49.000Z,9.3
2023-03-13T01:58:06.001Z,9.1
2023-03-13T01:59:20.000Z,8.2
2023-03-13T02:00:37.000Z,7.8
2023-03-13T02:01:53.000Z,7.3
2023-03-13T02:03:09.000Z,6.4
2023-03-13T02:04:25.000Z,6.2
2023-03-13T02:05:41.000Z,6
2023-03-13T02:06:57.000Z,5.7
2023-03-13T02:08:12.000Z,5.1
2023-03-13T02:09:28.000Z,4.8
2023-03-13T02:10:44.000Z,3.7
2023-03-13T02:12:00.681Z,3.9
2023-03-13T02:13:16.000Z,3.7
2023-03-13T02:14:32.000Z,3.4
2023-03-13T02:15:49.126Z,3.4
2023-03-13T02:17:05.000Z,3.3
2023-03-13T02:18:21.417Z,2.8
2023-03-13T02:19:37.000Z,2.5
2023-03-13T02:20:53.000Z,2.2
2023-03-13T02:22:09.000Z,1.6
2023-03-13T02:23:25.000Z,1.2
2023-03-13T02:24:41.000Z,1
2023-03-13T02:25:57.000Z,0.7
2023-03-13T02:27:13.000Z,0.2
2023-03-13T02:28:29.000Z,0
2023-03-13T02:29:45.000Z,0
2023-03-13T02:31:01.000Z,0
2023-03-13T02:32:17.000Z,0
2023-03-13T02:33:33.000Z,0
2023-03-13T02:34:49.369Z,0
2023-03-13T02:36:04.000Z,0
2023-03-13T02:37:20.000Z,0
2023-03-13T02:38:36.000Z,0
2023-03-13T02:39:52.000Z,0
2023-03-13T02:41:08.000Z,0
2023-03-13T02:42:25.000Z,0
2023-03-13T02:43:41.000Z,0
2023-03-13T02:44:57.000Z,0
2023-03-13T02:46:13.000Z,0
2023-03-13T02:47:29.000Z,0
2023-03-13T02:48:45.000Z,0
2023-03-13T02:50:01.000Z,0
2023-03-13T02:51:18.000Z,0
2023-03-13T02:52:33.000Z,0
2023-03-13T02:53:49.616Z,0
2023-03-13T02:55:05.000Z,0
2023-03-13T02:56:21.000Z,0
2023-03-13T02:57:37.000Z,0
2023-03-13T02:58:53.000Z,0
2023-03-13T03:00:10.000Z,0
2023-03-13T03:01:25.000Z,0
2023-03-13T03:02:40.000Z,0
2023-03-13T03:03:55.841Z,0
2023-03-13T03:05:10.000Z,0
2023-03-13T03:06:25.000Z,0
2023-03-13T03:07:41.000Z,0
2023-03-13T03:08:56.000Z,0
2023-03-13T03:10:11.000Z,0
2023-03-13T03:11:27.000Z,0
2023-03-13T03:12:43.000Z,0
2023-03-13T03:13:59.000Z,0
2023-03-13T03:15:16.000Z,0
2023-03-13T03:16:32.000Z,0
2023-03-13T03:17:48.000Z,0
2023-03-13T03:19:04.000Z,0
2023-03-13T03:20:20.000Z,0
2023-03-13T03:21:36.000Z,0
2023-03-13T03:22:52.000Z,0
2023-03-13T03:24:09.000Z,0
2023-03-13T03:25:25.000Z,0
2023-03-13T03:26:40.000Z,0
2023-03-13T03:27:56.000Z,0
2023-03-13T03:29:12.000Z,0
2023-03-13T03:30:28.000Z,0
2023-03-13T03:31:44.000Z,0
2023-03-13T03:33:01.000Z,0
2023-03-13T03:34:17.000Z,0
2023-03-13T03:35:32.000Z,0
2023-03-13T03:36:47.000Z,0
2023-03-13T03:38:03.000Z,0
2023-03-13T03:39:19.000Z,0
2023-03-13T03:40:35.000Z,0
2023-03-13T03:41:52.000Z,0
2023-03-13T03:43:08.000Z,0
2023-03-13T03:44:24.673Z,0
2023-03-13T03:46:56.000Z,0
2023-03-13T03:48:12.000Z,0
2023-03-13T03:49:29.247Z,0
2023-03-13T03:50:45.000Z,0
2023-03-13T03:52:01.000Z,0
2023-03-13T03:53:16.000Z,0
2023-03-13T03:54:32.000Z,0
2023-03-13T03:55:48.000Z,0
2023-03-13T03:57:05.133Z,0
2023-03-13T03:58:21.000Z,0
2023-03-13T03:59:37.000Z,0
2023-03-13T04:00:53.000Z,0
2023-03-13T04:02:09.000Z,0
2023-03-13T04:03:24.000Z,0
2023-03-13T04:04:39.000Z,0
2023-03-13T04:05:55.226Z,0
2023-03-13T04:07:10.000Z,0
2023-03-13T04:08:25.000Z,0
2023-03-13T04:09:40.000Z,0
2023-03-13T04:10:56.000Z,0
2023-03-13T04:12:12.000Z,0
2023-03-13T04:13:28.000Z,0
2023-03-13T04:14:45.000Z,0
2023-03-13T04:16:01.000Z,0
2023-03-13T04:17:17.000Z,0
2023-03-13T04:18:33.736Z,0
2023-03-13T04:19:49.000Z,0
2023-03-13T04:21:05.000Z,0
2023-03-13T04:22:21.000Z,0
2023-03-13T04:23:38.000Z,0
2023-03-13T04:24:54.000Z,0
2023-03-13T04:26:09.000Z,0
2023-03-13T04:27:25.000Z,0
2023-03-13T04:28:41.000Z,0
2023-03-13T04:29:58.073Z,0
2023-03-13T04:31:13.000Z,0
2023-03-13T04:32:30.000Z,0
2023-03-13T04:33:46.000Z,0
2023-03-13T04:35:01.000Z,0
2023-03-13T04:36:16.000Z,0
2023-03-13T04:37:31.000Z,0
2023-03-13T04:38:46.000Z,0
2023-03-13T04:40:03.000Z,0
2023-03-13T04:41:19.000Z,0
2023-03-13T04:42:35.000Z,0
2023-03-13T04:43:51.000Z,0
2023-03-13T04:45:07.000Z,0
2023-03-13T04:46:23.000Z,0
2023-03-13T04:47:39.000Z,0
2023-03-13T04:48:56.000Z,0
2023-03-13T04:50:12.478Z,0
2023-03-13T04:51:28.000Z,0
2023-03-13T04:52:44.000Z,0
2023-03-13T04:54:00.916Z,0
2023-03-13T04:55:15.000Z,0
2023-03-13T04:56:32.226Z,0
2023-03-13T04:57:48.000Z,0
2023-03-13T04:59:04.000Z,0
2023-03-13T05:00:20.000Z,0
2023-03-13T05:01:36.000Z,0
2023-03-13T05:02:52.000Z,0
2023-03-13T05:04:07.000Z,0
2023-03-13T05:05:23.000Z,0
2023-03-13T05:06:38.465Z,0
2023-03-13T05:07:53.000Z,0
2023-03-13T05:09:09.000Z,0
2023-03-13T05:10:25.000Z,0
2023-03-13T05:11:41.000Z,0
2023-03-13T05:12:57.000Z,0
2023-03-13T05:14:14.000Z,0
2023-03-13T05:15:30.000Z,0
2023-03-13T05:16:46.000Z,0
2023-03-13T05:18:02.000Z,0
2023-03-13T05:19:18.942Z,0
2023-03-13T05:20:34.000Z,0
2023-03-13T05:21:51.000Z,0
2023-03-13T05:23:07.000Z,0
2023-03-13T05:24:22.000Z,0
2023-03-13T05:25:38.686Z,0
2023-03-13T05:26:54.000Z,0
2023-03-13T05:28:10.000Z,0
2023-03-13T05:29:26.000Z,0
2023-03-13T05:30:43.000Z,0
2023-03-13T05:31:59.416Z,0
2023-03-13T05:33:14.000Z,0
2023-03-13T05:34:29.000Z,0
2023-03-13T05:35:44.000Z,0
2023-03-13T05:36:59.000Z,0
2023-03-13T05:38:15.000Z,0
2023-03-13T05:39:32.000Z,0
2023-03-13T05:40:48.000Z,0
2023-03-13T05:42:04.000Z,0
2023-03-13T05:43:20.000Z,0
2023-03-13T05:44:36.000Z,0
2023-03-13T05:45:52.000Z,0
2023-03-13T05:47:09.000Z,0
2023-03-13T05:48:25.000Z,0
2023-03-13T05:49:41.000Z,0
2023-03-13T05:50:57.000Z,0
2023-03-13T05:52:13.000Z,0
2023-03-13T05:53:28.000Z,0
2023-03-13T05:54:44.000Z,0
2023-03-13T05:56:01.000Z,0
2023-03-13T05:57:17.000Z,0
2023-03-13T05:58:33.000Z,0
2023-03-13T06:01:05.000Z,0
2023-03-13T06:02:21.000Z,0
2023-03-13T06:03:36.000Z,0
2023-03-13T06:04:52.000Z,0
2023-03-13T06:06:07.000Z,0
2023-03-13T06:07:22.000Z,0
2023-03-13T06:08:38.000Z,0
2023-03-13T06:09:54.000Z,0
2023-03-13T06:11:10.000Z,0
2023-03-13T06:12:27.000Z,0
2023-03-13T06:13:43.000Z,0
2023-03-13T06:14:59.000Z,0
2023-03-13T06:16:15.000Z,0
2023-03-13T06:17:31.000Z,0
2023-03-13T06:18:47.000Z,0
2023-03-13T06:20:03.000Z,0
2023-03-13T06:21:20.000Z,0
2023-03-13T06:22:36.000Z,0
2023-03-13T06:23:51.000Z,0
2023-03-13T06:25:07.000Z,0
2023-03-13T06:26:23.000Z,0
2023-03-13T06:27:39.000Z,0
2023-03-13T06:28:55.000Z,0
2023-03-13T06:30:12.000Z,0
2023-03-13T06:31:28.000Z,0
2023-03-13T06:32:43.000Z,0
2023-03-13T06:33:58.000Z,0
2023-03-13T06:35:14.000Z,0
2023-03-13T06:36:29.000Z,0
2023-03-13T06:37:45.000Z,0
2023-03-13T06:39:01.000Z,0
2023-03-13T06:40:17.000Z,0
2023-03-13T06:41:33.000Z,0
2023-03-13T06:42:49.000Z,0
2023-03-13T06:44:05.000Z,0
2023-03-13T06:45:21.000Z,0
2023-03-13T06:46:38.000Z,0
2023-03-13T06:47:54.000Z,0
2023-03-13T06:49:10.000Z,0
2023-03-13T06:50:26.000Z,0
2023-03-13T06:51:42.000Z,0
2023-03-13T06:52:58.000Z,0
2023-03-13T06:54:13.000Z,0
2023-03-13T06:55:30.326Z,0
2023-03-13T06:56:46.000Z,0
2023-03-13T06:58:02.000Z,0
2023-03-13T06:59:18.762Z,0
2023-03-13T07:00:34.000Z,0
2023-03-13T07:01:50.000Z,0
2023-03-13T07:03:06.000Z,0
2023-03-13T07:04:21.000Z,0
2023-03-13T07:05:37.000Z,0
2023-03-13T07:06:53.000Z,0
2023-03-13T07:08:09.000Z,0
2023-03-13T07:09:25.000Z,0
2023-03-13T07:10:41.000Z,0
2023-03-13T07:11:58.000Z,0
2023-03-13T07:13:14.407Z,0
2023-03-13T07:14:30.000Z,0
2023-03-13T07:15:46.000Z,0
2023-03-13T07:17:02.000Z,0
2023-03-13T07:18:18.000Z,0
2023-03-13T07:19:34.000Z,0
2023-03-13T07:20:50.298Z,0
2023-03-13T07:22:06.000Z,0
2023-03-13T07:23:22.000Z,0
2023-03-13T07:24:38.000Z,0
2023-03-13T07:25:54.000Z,0
2023-03-13T07:27:10.000Z,0
2023-03-13T07:28:26.000Z,0
2023-03-13T07:29:42.000Z,0
2023-03-13T07:30:57.000Z,0
2023-03-13T07:32:12.000Z,0
2023-03-13T07:33:27.000Z,0
2023-03-13T07:34:42.000Z,0
2023-03-13T07:35:57.000Z,0
2023-03-13T07:37:14.000Z,0
2023-03-13T07:38:30.465Z,0
2023-03-13T07:39:46.000Z,0
2023-03-13T07:41:02.000Z,0
2023-03-13T07:42:18.000Z,0
2023-03-13T07:43:34.000Z,0
2023-03-13T07:44:50.000Z,0
2023-03-13T07:46:07.000Z,0
2023-03-13T07:47:23.000Z,0
2023-03-13T07:48:39.000Z,0
2023-03-13T07:49:55.000Z,0
2023-03-13T07:51:11.000Z,0
2023-03-13T07:52:26.000Z,0
2023-03-13T07:53:42.000Z,0
2023-03-13T07:54:59.000Z,0
2023-03-13T07:56:15.000Z,0
2023-03-13T07:57:31.000Z,0
2023-03-13T07:58:47.000Z,0
2023-03-13T08:00:03.000Z,0
2023-03-13T08:01:18.000Z,0
2023-03-13T08:02:34.000Z,0
2023-03-13T08:03:49.000Z,0
2023-03-13T08:05:04.000Z,0
2023-03-13T08:06:20.000Z,0
2023-03-13T08:07:36.000Z,0
2023-03-13T08:08:52.000Z,0
2023-03-13T08:10:09.196Z,0
2023-03-13T08:11:25.000Z,0
2023-03-13T08:12:41.000Z,0
2023-03-13T08:13:57.000Z,0
2023-03-13T08:15:13.000Z,0
2023-03-13T08:16:29.000Z,0
2023-03-13T08:19:01.000Z,0
2023-03-13T08:20:18.000Z,0
2023-03-13T08:21:33.000Z,0
2023-03-13T08:22:49.000Z,0
2023-03-13T08:24:05.811Z,0
2023-03-13T08:25:21.000Z,0
2023-03-13T08:26:37.000Z,0
2023-03-13T08:27:54.000Z,0
2023-03-13T08:29:10.402Z,0
2023-03-13T08:30:26.000Z,0
2023-03-13T08:31:41.000Z,0
2023-03-13T08:32:56.000Z,0
2023-03-13T08:34:11.000Z,0
2023-03-13T08:35:27.000Z,0
2023-03-13T08:36:43.000Z,0
2023-03-13T08:37:59.000Z,0
2023-03-13T08:39:15.000Z,0
2023-03-13T08:40:31.000Z,0
2023-03-13T08:41:47.000Z,0
2023-03-13T08:43:03.000Z,0
2023-03-13T08:44:19.000Z,0
2023-03-13T08:45:36.000Z,0
2023-03-13T08:46:52.000Z,0
2023-03-13T08:48:08.658Z,0
2023-03-13T08:49:24.000Z,0
2023-03-13T08:50:40.000Z,0
2023-03-13T08:51:56.000Z,0
2023-03-13T08:53:12.000Z,0
2023-03-13T08:54:28.000Z,0
2023-03-13T08:55:44.000Z,0
2023-03-13T08:57:00.000Z,0
2023-03-13T08:58:16.000Z,0
2023-03-13T08:59:32.000Z,0
2023-03-13T09:00:47.000Z,0
2023-03-13T09:02:03.000Z,0
2023-03-13T09:03:19.000Z,0
2023-03-13T09:04:35.000Z,0
2023-03-13T09:05:51.000Z,0
2023-03-13T09:07:07.911Z,0
2023-03-13T09:08:23.000Z,0
2023-03-13T09:09:39.000Z,0
2023-03-13T09:10:56.000Z,0
2023-03-13T09:12:12.000Z,0
2023-03-13T09:13:28.000Z,0
2023-03-13T09:14:44.000Z,0
2023-03-13T09:16:00.000Z,0
2023-03-13T09:17:16.000Z,0
2023-03-13T09:18:32.000Z,0
2023-03-13T09:19:48.000Z,0
2023-03-13T09:21:04.518Z,0
2023-03-13T09:22:20.000Z,0
2023-03-13T09:23:36.000Z,0
2023-03-13T09:24:52.000Z,0
2023-03-13T09:26:08.000Z,0
2023-03-13T09:27:24.000Z,0
2023-03-13T09:28:39.000Z,0
2023-03-13T09:29:54.613Z,0
2023-03-13T09:31:09.000Z,0
2023-03-13T09:32:25.000Z,0
2023-03-13T09:33:41.000Z,0
2023-03-13T09:34:58.223Z,0
2023-03-13T09:36:14.000Z,0
2023-03-13T09:37:30.000Z,0
2023-03-13T09:38:46.000Z,0
2023-03-13T09:40:02.000Z,0
2023-03-13T09:41:18.000Z,0
2023-03-13T09:42:34.000Z,0
2023-03-13T09:45:07.000Z,0
2023-03-13T09:46:23.000Z,0
2023-03-13T09:47:38.000Z,0
2023-03-13T09:48:54.000Z,0
2023-03-13T09:50:10.000Z,0
2023-03-13T09:51:26.000Z,0
2023-03-13T09:52:43.000Z,0
2023-03-13T09:53:59.000Z,0
2023-03-13T09:55:15.000Z,0
2023-03-13T09:56:31.000Z,0
2023-03-13T09:57:46.000Z,0
2023-03-13T09:59:01.000Z,0
2023-03-13T10:00:17.000Z,0
2023-03-13T10:01:34.000Z,0
2023-03-13T10:02:50.000Z,0
2023-03-13T10:05:22.000Z,0
2023-03-13T10:06:37.000Z,0
2023-03-13T10:07:52.000Z,0
2023-03-13T10:09:09.000Z,0
2023-03-13T10:10:25.000Z,0
2023-03-13T10:11:41.000Z,0
2023-03-13T10:12:57.000Z,0
2023-03-13T10:14:13.000Z,0
2023-03-13T10:15:29.000Z,0
2023-03-13T10:16:45.000Z,0
2023-03-13T10:18:02.000Z,0
2023-03-13T10:19:18.000Z,0
2023-03-13T10:20:34.000Z,0
2023-03-13T10:21:50.000Z,0
2023-03-13T10:23:06.000Z,0
2023-03-13T10:24:21.000Z,0
2023-03-13T10:25:37.000Z,0
2023-03-13T10:26:54.000Z,1.3
2023-03-13T10:28:10.000Z,4.1
2023-03-13T10:29:26.000Z,5.6
2023-03-13T10:30:42.000Z,9
2023-03-13T10:31:58.000Z,8.9
2023-03-13T10:33:13.000Z,13.3
2023-03-13T10:34:28.000Z,13.3
2023-03-13T10:35:45.000Z,18.2
2023-03-13T10:37:00.000Z,15.2
2023-03-13T10:38:15.000Z,18.2
2023-03-13T10:39:31.000Z,17.5
2023-03-13T10:40:47.000Z,19.6
2023-03-13T10:42:03.000Z,19.2
2023-03-13T10:43:20.279Z,19.6
2023-03-13T10:44:36.000Z,23.1
2023-03-13T10:45:52.000Z,18.9
2023-03-13T10:47:08.000Z,23
2023-03-13T10:48:24.000Z,24.8
2023-03-13T10:49:40.000Z,27.6
2023-03-13T10:50:56.000Z,26.1
2023-03-13T10:52:13.000Z,30.3
2023-03-13T10:53:29.000Z,30.7
2023-03-13T10:54:44.000Z,36.5
2023-03-13T10:56:00.000Z,35.7
2023-03-13T10:57:16.000Z,35.9
2023-03-13T10:58:32.000Z,39.2
2023-03-13T10:59:48.000Z,39.5
2023-03-13T11:01:05.000Z,41.7
2023-03-13T11:02:21.000Z,42.9
2023-03-13T11:03:36.000Z,45.2
2023-03-13T11:04:51.000Z,46.3
2023-03-13T11:06:07.000Z,46.2
2023-03-13T11:07:23.000Z,49.3
2023-03-13T11:08:40.000Z,52.5
2023-03-13T11:09:56.000Z,47.4
2023-03-13T11:11:12.000Z,51.4
2023-03-13T11:12:28.000Z,50
2023-03-13T11:13:44.000Z,50.9
2023-03-13T11:15:00.958Z,55.2
2023-03-13T11:16:16.000Z,55.6
2023-03-13T11:17:33.000Z,57.7
2023-03-13T11:18:49.000Z,57.2
2023-03-13T11:20:05.000Z,58.8
2023-03-13T11:21:20.700Z,59.4
2023-03-13T11:22:36.864Z,66.4
2023-03-13T11:23:52.000Z,67.5
2023-03-13T11:25:08.000Z,70.8
2023-03-13T11:26:25.000Z,74.3
2023-03-13T11:27:41.000Z,73.3
2023-03-13T11:28:57.000Z,75.9
2023-03-13T11:30:12.000Z,78
2023-03-13T11:31:27.000Z,80.7
2023-03-13T11:32:42.000Z,78.9
2023-03-13T11:33:58.000Z,81.2
2023-03-13T11:35:14.000Z,82.7
2023-03-13T11:36:30.000Z,87.7
2023-03-13T11:37:46.000Z,84.4
2023-03-13T11:39:02.000Z,88.8
2023-03-13T11:40:18.000Z,86.5
2023-03-13T11:41:34.000Z,90.5
2023-03-13T11:42:51.000Z,87
2023-03-13T11:44:07.000Z,93
2023-03-13T11:45:23.000Z,93.5
2023-03-13T11:46:39.000Z,94.4
2023-03-13T11:47:55.000Z,95.1
2023-03-13T11:49:11.000Z,93.8
2023-03-13T11:50:26.000Z,95
2023-03-13T11:51:43.000Z,96
2023-03-13T11:52:59.445Z,92.9
2023-03-13T11:54:15.000Z,94.2
2023-03-13T11:55:31.000Z,93.7
2023-03-13T11:56:47.000Z,91.9
2023-03-13T11:59:20.165Z,94.3
2023-03-13T12:00:35.000Z,92.8
2023-03-13T12:01:50.000Z,93.1
2023-03-13T12:03:05.000Z,92.6
2023-03-13T12:04:20.000Z,89.7
2023-03-13T12:05:36.000Z,90.3
2023-03-13T12:06:53.116Z,89.7
2023-03-13T12:08:09.000Z,91
2023-03-13T12:09:25.000Z,93.7
2023-03-13T12:10:41.000Z,94.8
2023-03-13T12:11:57.000Z,93.8
2023-03-13T12:13:13.000Z,94.9
2023-03-13T12:14:29.000Z,93.2
2023-03-13T12:15:45.000Z,96.1
2023-03-13T12:17:02.000Z,96.9
2023-03-13T12:18:18.000Z,93.5
2023-03-13T12:19:34.000Z,94.4
2023-03-13T12:20:49.000Z,93.9
2023-03-13T12:22:05.000Z,93.5
2023-03-13T12:23:21.000Z,96
2023-03-13T12:24:37.000Z,95.8
2023-03-13T12:25:54.000Z,95
2023-03-13T12:27:10.000Z,95.7
2023-03-13T12:28:26.000Z,94.3
2023-03-13T12:29:41.000Z,95.4
2023-03-13T12:30:56.000Z,95.4
2023-03-13T12:32:11.000Z,95.9
2023-03-13T12:33:27.000Z,97
2023-03-13T12:34:43.000Z,99
2023-03-13T12:35:59.000Z,98.2
2023-03-13T12:37:15.000Z,99.2
2023-03-13T12:38:31.000Z,98.1
2023-03-13T12:39:47.000Z,97
2023-03-13T12:41:03.000Z,98.1
2023-03-13T12:42:20.000Z,98.9
2023-03-13T12:43:36.000Z,99.8
2023-03-13T12:44:52.000Z,99.8
2023-03-13T12:46:08.000Z,99.7
2023-03-13T12:47:24.000Z,100
2023-03-13T12:48:40.000Z,99.4
2023-03-13T12:49:55.000Z,100
2023-03-13T12:51:12.000Z,100
2023-03-13T12:52:28.000Z,100
2023-03-13T12:53:44.000Z,100
2023-03-13T12:55:00.000Z,100
2023-03-13T12:56:16.000Z,100
2023-03-13T12:57:33.074Z,100
2023-03-13T12:58:48.000Z,100
2023-03-13T13:00:03.000Z,100
2023-03-13T13:01:18.000Z,100
2023-03-13T13:02:33.000Z,100
2023-03-13T13:03:49.000Z,100
2023-03-13T13:05:05.000Z,100
2023-03-13T13:06:22.185Z,100
2023-03-13T13:07:38.337Z,100
2023-03-13T13:08:54.000Z,100
2023-03-13T13:10:10.627Z,100
2023-03-13T13:11:26.000Z,100
2023-03-13T13:12:42.000Z,100
2023-03-13T13:13:58.000Z,100
2023-03-13T13:15:14.000Z,100
2023-03-13T13:16:31.000Z,100
2023-03-13T13:17:47.000Z,100
2023-03-13T13:19:02.000Z,100
2023-03-13T13:20:18.000Z,100
2023-03-13T13:21:34.000Z,100
2023-03-13T13:22:50.000Z,100
2023-03-13T13:24:07.000Z,100
2023-03-13T13:25:23.000Z,100
2023-03-13T13:26:39.000Z,100
2023-03-13T13:27:54.722Z,100
2023-03-13T13:29:09.000Z,100
2023-03-13T13:30:25.000Z,100
2023-03-13T13:31:41.000Z,100
2023-03-13T13:32:57.000Z,100
2023-03-13T13:34:12.000Z,100
2023-03-13T13:35:28.000Z,100
2023-03-13T13:36:44.000Z,100
2023-03-13T13:38:00.000Z,100
2023-03-13T13:39:16.000Z,100
2023-03-13T13:40:33.000Z,100
2023-03-13T13:41:49.000Z,100
2023-03-13T13:43:05.000Z,100
2023-03-13T13:44:21.000Z,100
2023-03-13T13:45:37.000Z,100
2023-03-13T13:46:53.000Z,100
2023-03-13T13:48:09.000Z,100
2023-03-13T13:49:26.000Z,100
2023-03-13T13:50:41.000Z,100
2023-03-13T13:51:57.000Z,99
2023-03-13T13:53:13.000Z,100
2023-03-13T13:54:29.000Z,100
2023-03-13T13:55:45.000Z,100
2023-03-13T13:57:01.000Z,100
2023-03-13T13:58:18.000Z,100
2023-03-13T13:59:33.000Z,99.8
2023-03-13T14:00:48.000Z,100
2023-03-13T14:02:03.000Z,100
2023-03-13T14:03:18.000Z,100
2023-03-13T14:04:34.000Z,100
2023-03-13T14:05:51.000Z,100
2023-03-13T14:07:07.000Z,100
2023-03-13T14:08:23.000Z,100
2023-03-13T14:09:39.000Z,100
2023-03-13T14:10:55.000Z,100
2023-03-13T14:12:11.000Z,100
2023-03-13T14:13:27.000Z,100
2023-03-13T14:14:44.000Z,100
2023-03-13T14:16:00.000Z,100
2023-03-13T14:17:16.000Z,100
2023-03-13T14:18:32.000Z,100
2023-03-13T14:19:47.000Z,100
2023-03-13T14:21:03.000Z,100
2023-03-13T14:22:19.000Z,100
2023-03-13T14:23:36.000Z,100
2023-03-13T14:24:52.000Z,100
2023-03-13T14:26:08.000Z,100
2023-03-13T14:27:24.000Z,100
2023-03-13T14:28:39.000Z,100
2023-03-13T14:29:54.000Z,100
2023-03-13T14:31:10.000Z,100
2023-03-13T14:32:25.000Z,100
2023-03-13T14:33:41.614Z,100
2023-03-13T14:34:57.759Z,100
2023-03-13T14:36:13.000Z,100
2023-03-13T14:37:29.000Z,100
2023-03-13T14:38:45.000Z,100
2023-03-13T14:40:02.000Z,100
2023-03-13T14:41:18.000Z,100
2023-03-13T14:42:34.000Z,100
2023-03-13T14:43:50.000Z,100
2023-03-13T14:45:06.000Z,100
2023-03-13T14:46:22.000Z,100
2023-03-13T14:47:38.000Z,100
2023-03-13T14:48:54.000Z,100
2023-03-13T14:50:10.000Z,100
2023-03-13T14:51:26.000Z,100
2023-03-13T14:52:42.000Z,100
2023-03-13T14:53:58.000Z,100
2023-03-13T14:55:15.115Z,100
2023-03-13T14:56:31.000Z,100
2023-03-13T14:57:46.000Z,100
2023-03-13T14:59:01.000Z,100
2023-03-13T15:00:16.000Z,100
2023-03-13T15:01:31.000Z,100
2023-03-13T15:02:47.000Z,100
2023-03-13T15:04:03.000Z,100
2023-03-13T15:05:20.000Z,100
2023-03-13T15:06:36.000Z,100
2023-03-13T15:07:52.000Z,100
2023-03-13T15:09:08.000Z,100
2023-03-13T15:10:24.000Z,100
2023-03-13T15:11:41.106Z,100
2023-03-13T15:12:57.000Z,100
2023-03-13T15:14:13.000Z,100
2023-03-13T15:15:29.000Z,100
2023-03-13T15:16:45.000Z,100
2023-03-13T15:18:00.000Z,100
2023-03-13T15:20:32.000Z,100
2023-03-13T15:21:49.000Z,100
2023-03-13T15:23:05.000Z,100
2023-03-13T15:24:21.000Z,100
2023-03-13T15:25:37.000Z,100
2023-03-13T15:26:53.000Z,100
2023-03-13T15:28:08.000Z,100
2023-03-13T15:29:23.000Z,100
2023-03-13T15:30:39.000Z,100
2023-03-13T15:31:54.000Z,100
2023-03-13T15:33:10.000Z,100
2023-03-13T15:34:26.000Z,100
2023-03-13T15:35:42.000Z,100
2023-03-13T15:36:58.000Z,100
2023-03-13T15:38:15.000Z,100
2023-03-13T15:39:31.437Z,100
2023-03-13T15:40:47.000Z,100
2023-03-13T15:42:03.000Z,100
2023-03-13T15:43:19.000Z,100
2023-03-13T15:44:35.000Z,100
2023-03-13T15:45:51.000Z,100
2023-03-13T15:47:08.000Z,100
2023-03-13T15:48:23.000Z,100
2023-03-13T15:49:39.000Z,100
2023-03-13T15:50:55.000Z,100
2023-03-13T15:52:11.000Z,100
2023-03-13T15:53:27.000Z,100
2023-03-13T15:54:43.000Z,100
2023-03-13T15:56:00.000Z,100
2023-03-13T15:57:15.000Z,100
2023-03-13T15:58:30.000Z,100
2023-03-13T15:59:46.850Z,100
2023-03-13T16:01:01.000Z,100
2023-03-13T16:02:16.000Z,100
2023-03-13T16:03:33.000Z,100
2023-03-13T16:04:49.000Z,100
2023-03-13T16:06:05.000Z,100
2023-03-13T16:07:21.000Z,100
2023-03-13T16:08:37.000Z,100
2023-03-13T16:09:53.000Z,100
2023-03-13T16:11:09.000Z,100
2023-03-13T16:12:26.000Z,100
2023-03-13T16:13:42.000Z,100
2023-03-13T16:14:58.000Z,100
2023-03-13T16:16:14.000Z,100
2023-03-13T16:17:30.000Z,100
2023-03-13T16:18:45.000Z,100
2023-03-13T16:20:02.000Z,100
2023-03-13T16:21:18.000Z,100
2023-03-13T16:22:34.000Z,100
2023-03-13T16:23:50.000Z,100
2023-03-13T16:25:06.000Z,100
2023-03-13T16:26:22.000Z,100
2023-03-13T16:27:37.000Z,100
2023-03-13T16:28:53.339Z,100
2023-03-13T16:30:09.000Z,100
2023-03-13T16:31:25.000Z,100
2023-03-13T16:32:41.000Z,100
2023-03-13T16:33:57.000Z,100
2023-03-13T16:35:13.000Z,100
2023-03-13T16:36:29.000Z,100
2023-03-13T16:37:46.000Z,100
2023-03-13T16:39:02.000Z,100
2023-03-13T16:40:18.000Z,100
2023-03-13T16:41:34.000Z,100
2023-03-13T16:42:50.000Z,100
2023-03-13T16:44:06.000Z,100
2023-03-13T16:45:22.000Z,100
2023-03-13T16:46:38.393Z,100
2023-03-13T16:47:54.000Z,100
2023-03-13T16:49:10.000Z,100
2023-03-13T16:50:26.833Z,100
2023-03-13T16:51:42.000Z,100
2023-03-13T16:52:58.000Z,100
2023-03-13T16:54:14.000Z,100
2023-03-13T16:55:29.000Z,100
2023-03-13T16:56:44.642Z,100
2023-03-13T16:58:00.784Z,100
2023-03-13T16:59:15.000Z,100
2023-03-13T17:00:30.000Z,100
2023-03-13T17:01:47.000Z,100
2023-03-13T17:03:03.000Z,100
2023-03-13T17:04:19.000Z,100
2023-03-13T17:05:35.000Z,100
2023-03-13T17:06:51.000Z,100
2023-03-13T17:08:07.000Z,100
2023-03-13T17:09:23.000Z,100
2023-03-13T17:10:40.000Z,100
2023-03-13T17:11:56.000Z,100
2023-03-13T17:13:12.000Z,100
2023-03-13T17:14:28.000Z,100
2023-03-13T17:15:44.000Z,100
2023-03-13T17:16:59.000Z,100
2023-03-13T17:18:15.000Z,100
2023-03-13T17:19:32.000Z,100
2023-03-13T17:20:48.000Z,100
2023-03-13T17:22:04.000Z,100
2023-03-13T17:23:20.000Z,100
2023-03-13T17:24:36.000Z,100
2023-03-13T17:25:51.000Z,100
2023-03-13T17:27:07.000Z,100
2023-03-13T17:28:23.000Z,100
2023-03-13T17:29:38.000Z,100
2023-03-13T17:30:53.000Z,100
2023-03-13T17:32:09.000Z,100
2023-03-13T17:33:25.000Z,100
2023-03-13T17:34:41.000Z,100
2023-03-13T17:35:58.000Z,100
2023-03-13T17:37:14.000Z,100
2023-03-13T17:38:30.000Z,100
2023-03-13T17:39:46.000Z,100
2023-03-13T17:41:02.000Z,100
2023-03-13T17:42:18.000Z,100
2023-03-13T17:43:34.000Z,100
2023-03-13T17:44:51.000Z,100
2023-03-13T17:46:07.000Z,100
2023-03-13T17:47:22.000Z,100
2023-03-13T17:48:38.824Z,100
2023-03-13T17:49:54.000Z,100
2023-03-13T17:51:10.000Z,100
2023-03-13T17:52:27.000Z,100
2023-03-13T17:53:43.000Z,100
2023-03-13T17:56:15.000Z,100
2023-03-13T17:57:30.000Z,100
2023-03-13T17:58:45.000Z,100
2023-03-13T18:00:00.000Z,100
2023-03-13T18:01:16.000Z,100